sensor_id;sensor_type;location;lat;lon;timestamp;pressure;altitude;pressure_sealevel;temperature;humidity
64675;BME280;51090;51.512;11.332;2023-06-14T00:00:59;99415.56;;;15.43;62.07
64675;BME280;51090;51.512;11.332;2023-06-14T00:03:25;99410.03;;;15.38;62.40
64675;BME280;51090;51.512;11.332;2023-06-14T00:05:51;99411.09;;;15.37;62.20
64675;BME280;51090;51.512;11.332;2023-06-14T00:08:17;99405.13;;;15.35;62.54
64675;BME280;51090;51.512;11.332;2023-06-14T00:10:45;99398.38;;;15.32;62.64
64675;BME280;51090;51.512;11.332;2023-06-14T00:13:11;99399.84;;;15.28;63.02
64675;BME280;51090;51.512;11.332;2023-06-14T00:15:37;99395.75;;;15.25;63.19
64675;BME280;51090;51.512;11.332;2023-06-14T00:18:03;99398.03;;;15.22;63.98
64675;BME280;51090;51.512;11.332;2023-06-14T00:20:31;99399.72;;;15.16;64.20
64675;BME280;51090;51.512;11.332;2023-06-14T00:23:01;99402.66;;;15.08;64.32
64675;BME280;51090;51.512;11.332;2023-06-14T00:25:27;99400.22;;;15.00;64.58
64675;BME280;51090;51.512;11.332;2023-06-14T00:27:55;99407.84;;;14.96;64.80
64675;BME280;51090;51.512;11.332;2023-06-14T00:30:21;99403.56;;;14.89;65.62
64675;BME280;51090;51.512;11.332;2023-06-14T00:32:47;99406.88;;;14.84;65.54
64675;BME280;51090;51.512;11.332;2023-06-14T00:35:14;99403.22;;;14.78;65.64
64675;BME280;51090;51.512;11.332;2023-06-14T00:37:40;99405.50;;;14.75;65.89
64675;BME280;51090;51.512;11.332;2023-06-14T00:40:07;99408.19;;;14.68;66.59
64675;BME280;51090;51.512;11.332;2023-06-14T00:42:33;99397.75;;;14.60;66.75
64675;BME280;51090;51.512;11.332;2023-06-14T00:45:00;99399.19;;;14.56;67.01
64675;BME280;51090;51.512;11.332;2023-06-14T00:47:26;99407.00;;;14.51;67.45
64675;BME280;51090;51.512;11.332;2023-06-14T00:49:53;99412.75;;;14.48;68.34
64675;BME280;51090;51.512;11.332;2023-06-14T00:52:21;99414.81;;;14.46;67.84
64675;BME280;51090;51.512;11.332;2023-06-14T00:54:49;99416.28;;;14.42;68.65
64675;BME280;51090;51.512;11.332;2023-06-14T00:57:16;99415.66;;;14.40;68.17
64675;BME280;51090;51.512;11.332;2023-06-14T00:59:47;99415.66;;;14.40;69.25
64675;BME280;51090;51.512;11.332;2023-06-14T01:02:14;99416.09;;;14.36;68.95
64675;BME280;51090;51.512;11.332;2023-06-14T01:04:45;99414.84;;;14.32;68.76
64675;BME280;51090;51.512;11.332;2023-06-14T01:07:33;99414.25;;;14.30;71.49
64675;BME280;51090;51.512;11.332;2023-06-14T01:13:03;99415.72;;;14.26;72.26
64675;BME280;51090;51.512;11.332;2023-06-14T01:15:31;99419.41;;;14.19;69.48
64675;BME280;51090;51.512;11.332;2023-06-14T01:17:58;99420.66;;;14.16;70.22
64675;BME280;51090;51.512;11.332;2023-06-14T01:20:30;99415.13;;;14.11;70.67
64675;BME280;51090;51.512;11.332;2023-06-14T01:22:57;99414.72;;;14.07;70.27
64675;BME280;51090;51.512;11.332;2023-06-14T01:25:24;99416.97;;;14.04;70.45
64675;BME280;51090;51.512;11.332;2023-06-14T01:27:53;99421.69;;;14.02;72.13
64675;BME280;51090;51.512;11.332;2023-06-14T01:30:21;99418.63;;;13.98;71.10
64675;BME280;51090;51.512;11.332;2023-06-14T01:32:50;99420.50;;;13.98;71.64
64675;BME280;51090;51.512;11.332;2023-06-14T01:35:17;99419.06;;;13.95;71.00
64675;BME280;51090;51.512;11.332;2023-06-14T01:37:43;99425.63;;;13.92;71.14
64675;BME280;51090;51.512;11.332;2023-06-14T01:40:13;99421.53;;;13.90;71.77
64675;BME280;51090;51.512;11.332;2023-06-14T01:42:40;99424.56;;;13.87;71.64
64675;BME280;51090;51.512;11.332;2023-06-14T01:45:07;99424.19;;;13.83;71.71
64675;BME280;51090;51.512;11.332;2023-06-14T01:47:35;99419.88;;;13.82;72.03
64675;BME280;51090;51.512;11.332;2023-06-14T01:50:03;99419.47;;;13.79;72.06
64675;BME280;51090;51.512;11.332;2023-06-14T01:52:29;99421.72;;;13.75;72.29
64675;BME280;51090;51.512;11.332;2023-06-14T01:54:55;99422.34;;;13.70;72.63
64675;BME280;51090;51.512;11.332;2023-06-14T01:57:23;99420.91;;;13.68;73.30
64675;BME280;51090;51.512;11.332;2023-06-14T01:59:49;99423.38;;;13.63;73.27
64675;BME280;51090;51.512;11.332;2023-06-14T02:02:16;99422.75;;;13.61;73.03
64675;BME280;51090;51.512;11.332;2023-06-14T02:04:42;99423.16;;;13.58;74.07
64675;BME280;51090;51.512;11.332;2023-06-14T02:07:08;99426.44;;;13.53;74.06
64675;BME280;51090;51.512;11.332;2023-06-14T02:09:35;99427.03;;;13.48;75.70
64675;BME280;51090;51.512;11.332;2023-06-14T02:12:02;99430.09;;;13.45;76.12
64675;BME280;51090;51.512;11.332;2023-06-14T02:14:28;99425.38;;;13.41;75.71
64675;BME280;51090;51.512;11.332;2023-06-14T02:16:54;99425.59;;;13.39;76.06
64675;BME280;51090;51.512;11.332;2023-06-14T02:19:21;99429.09;;;13.40;77.52
64675;BME280;51090;51.512;11.332;2023-06-14T02:21:47;99429.91;;;13.40;77.83
64675;BME280;51090;51.512;11.332;2023-06-14T02:24:13;99428.69;;;13.43;77.37
64675;BME280;51090;51.512;11.332;2023-06-14T02:26:40;99428.69;;;13.49;77.42
64675;BME280;51090;51.512;11.332;2023-06-14T02:29:08;99431.56;;;13.55;77.29
64675;BME280;51090;51.512;11.332;2023-06-14T02:31:36;99427.44;;;13.59;77.50
64675;BME280;51090;51.512;11.332;2023-06-14T02:34:03;99425.41;;;13.61;79.16
64675;BME280;51090;51.512;11.332;2023-06-14T02:36:29;99432.16;;;13.63;78.12
64675;BME280;51090;51.512;11.332;2023-06-14T02:38:57;99432.59;;;13.67;77.41
64675;BME280;51090;51.512;11.332;2023-06-14T02:41:24;99431.56;;;13.68;78.93
64675;BME280;51090;51.512;11.332;2023-06-14T02:43:52;99431.16;;;13.71;78.54
64675;BME280;51090;51.512;11.332;2023-06-14T02:46:18;99438.13;;;13.72;79.20
64675;BME280;51090;51.512;11.332;2023-06-14T02:48:44;99435.06;;;13.75;78.82
64675;BME280;51090;51.512;11.332;2023-06-14T02:51:11;99438.72;;;13.74;79.40
64675;BME280;51090;51.512;11.332;2023-06-14T02:53:39;99438.13;;;13.72;80.89
64675;BME280;51090;51.512;11.332;2023-06-14T02:56:06;99440.38;;;13.68;79.91
64675;BME280;51090;51.512;11.332;2023-06-14T02:58:32;99451.25;;;13.67;79.19
64675;BME280;51090;51.512;11.332;2023-06-14T03:00:58;99444.69;;;13.63;80.05
64675;BME280;51090;51.512;11.332;2023-06-14T03:03:29;99438.72;;;13.61;82.27
64675;BME280;51090;51.512;11.332;2023-06-14T03:05:55;99447.75;;;13.60;80.89
64675;BME280;51090;51.512;11.332;2023-06-14T03:08:22;99442.44;;;13.60;81.83
64675;BME280;51090;51.512;11.332;2023-06-14T03:10:53;99447.75;;;13.60;81.20
64675;BME280;51090;51.512;11.332;2023-06-14T03:13:19;99447.94;;;13.58;81.13
64675;BME280;51090;51.512;11.332;2023-06-14T03:15:48;99450.22;;;13.55;82.01
64675;BME280;51090;51.512;11.332;2023-06-14T03:18:16;99445.31;;;13.52;81.65
64675;BME280;51090;51.512;11.332;2023-06-14T03:20:42;99451.00;;;13.48;81.56
64675;BME280;51090;51.512;11.332;2023-06-14T03:23:12;99446.09;;;13.45;82.57
64675;BME280;51090;51.512;11.332;2023-06-14T03:25:38;99451.84;;;13.42;83.31
64675;BME280;51090;51.512;11.332;2023-06-14T03:28:06;99451.84;;;13.42;84.56
64675;BME280;51090;51.512;11.332;2023-06-14T03:30:32;99452.47;;;13.44;84.09
64675;BME280;51090;51.512;11.332;2023-06-14T03:32:58;99461.06;;;13.46;84.10
64675;BME280;51090;51.512;11.332;2023-06-14T03:35:27;99460.03;;;13.47;84.08
64675;BME280;51090;51.512;11.332;2023-06-14T03:37:53;99467.22;;;13.47;84.04
64675;BME280;51090;51.512;11.332;2023-06-14T03:40:21;99465.56;;;13.46;83.93
64675;BME280;51090;51.512;11.332;2023-06-14T03:42:48;99471.91;;;13.45;84.40
64675;BME280;51090;51.512;11.332;2023-06-14T03:45:14;99480.72;;;13.45;83.81
64675;BME280;51090;51.512;11.332;2023-06-14T03:47:40;99487.28;;;13.43;83.85
64675;BME280;51090;51.512;11.332;2023-06-14T03:50:06;99479.28;;;13.43;84.60
64675;BME280;51090;51.512;11.332;2023-06-14T03:52:33;99478.88;;;13.39;84.86
64675;BME280;51090;51.512;11.332;2023-06-14T03:54:59;99487.06;;;13.38;84.29
64675;BME280;51090;51.512;11.332;2023-06-14T03:57:26;99486.25;;;13.37;84.70
64675;BME280;51090;51.512;11.332;2023-06-14T03:59:52;99489.09;;;13.36;85.42
64675;BME280;51090;51.512;11.332;2023-06-14T04:02:18;99495.06;;;13.38;85.89
64675;BME280;51090;51.512;11.332;2023-06-14T04:04:45;99493.19;;;13.38;85.59
64675;BME280;51090;51.512;11.332;2023-06-14T04:07:12;99495.47;;;13.41;86.05
64675;BME280;51090;51.512;11.332;2023-06-14T04:09:39;99498.75;;;13.43;85.43
64675;BME280;51090;51.512;11.332;2023-06-14T04:12:06;99501.03;;;13.46;85.57
64675;BME280;51090;51.512;11.332;2023-06-14T04:14:32;99509.63;;;13.48;85.83
64675;BME280;51090;51.512;11.332;2023-06-14T04:16:59;99498.97;;;13.48;88.19
64675;BME280;51090;51.512;11.332;2023-06-14T04:19:25;99503.28;;;13.49;88.36
64675;BME280;51090;51.512;11.332;2023-06-14T04:21:51;99505.53;;;13.53;87.67
64675;BME280;51090;51.512;11.332;2023-06-14T04:24:17;99503.72;;;13.60;86.84
64675;BME280;51090;51.512;11.332;2023-06-14T04:26:44;99504.56;;;13.67;86.84
64675;BME280;51090;51.512;11.332;2023-06-14T04:29:17;99504.13;;;13.70;87.72
64675;BME280;51090;51.512;11.332;2023-06-14T04:31:46;99511.91;;;13.71;88.06
64675;BME280;51090;51.512;11.332;2023-06-14T04:34:13;99511.91;;;13.71;89.40
64675;BME280;51090;51.512;11.332;2023-06-14T04:36:42;99517.03;;;13.73;88.43
64675;BME280;51090;51.512;11.332;2023-06-14T04:39:15;99518.91;;;13.72;95.20
64675;BME280;51090;51.512;11.332;2023-06-14T04:41:43;99511.72;;;13.73;88.23
64675;BME280;51090;51.512;11.332;2023-06-14T04:44:10;99510.88;;;13.79;88.78
64675;BME280;51090;51.512;11.332;2023-06-14T04:46:36;99515.00;;;13.88;90.42
64675;BME280;51090;51.512;11.332;2023-06-14T04:49:21;99513.78;;;14.04;90.63
64675;BME280;51090;51.512;11.332;2023-06-14T04:51:49;99516.66;;;14.16;87.30
64675;BME280;51090;51.512;11.332;2023-06-14T04:54:23;99517.25;;;14.25;88.06
64675;BME280;51090;51.512;11.332;2023-06-14T04:56:51;99515.81;;;14.35;87.47
64675;BME280;51090;51.512;11.332;2023-06-14T04:59:17;99522.16;;;14.48;86.83
64675;BME280;51090;51.512;11.332;2023-06-14T05:01:43;99519.28;;;14.63;86.14
64675;BME280;51090;51.512;11.332;2023-06-14T05:04:16;99523.16;;;14.73;85.01
64675;BME280;51090;51.512;11.332;2023-06-14T05:06:43;99525.38;;;14.83;84.82
64675;BME280;51090;51.512;11.332;2023-06-14T05:09:14;99526.78;;;14.92;84.04
64675;BME280;51090;51.512;11.332;2023-06-14T05:11:42;99525.13;;;14.98;83.74
64675;BME280;51090;51.512;11.332;2023-06-14T05:14:10;99525.94;;;14.98;84.61
64675;BME280;51090;51.512;11.332;2023-06-14T05:16:37;99525.09;;;15.05;83.94
64675;BME280;51090;51.512;11.332;2023-06-14T05:19:03;99516.44;;;15.09;84.16
64675;BME280;51090;51.512;11.332;2023-06-14T05:21:33;99517.03;;;15.18;83.40
64675;BME280;51090;51.512;11.332;2023-06-14T05:24:01;99518.22;;;15.29;83.51
64675;BME280;51090;51.512;11.332;2023-06-14T05:26:27;99523.09;;;15.38;82.54
64675;BME280;51090;51.512;11.332;2023-06-14T05:28:57;99519.94;;;15.48;83.34
64675;BME280;51090;51.512;11.332;2023-06-14T05:31:24;99522.81;;;15.53;81.67
64675;BME280;51090;51.512;11.332;2023-06-14T05:33:52;99527.31;;;15.59;84.50
64675;BME280;51090;51.512;11.332;2023-06-14T05:36:19;99527.25;;;15.73;81.21
64675;BME280;51090;51.512;11.332;2023-06-14T05:38:46;99524.13;;;15.76;80.65
64675;BME280;51090;51.512;11.332;2023-06-14T05:41:13;99522.72;;;15.73;80.95
64675;BME280;51090;51.512;11.332;2023-06-14T05:43:39;99525.75;;;15.77;81.45
64675;BME280;51090;51.512;11.332;2023-06-14T05:46:05;99521.41;;;15.82;81.45
64675;BME280;51090;51.512;11.332;2023-06-14T05:48:31;99524.63;;;15.91;80.89
64675;BME280;51090;51.512;11.332;2023-06-14T05:50:58;99523.56;;;15.99;80.70
64675;BME280;51090;51.512;11.332;2023-06-14T05:53:24;99520.63;;;16.00;80.37
64675;BME280;51090;51.512;11.332;2023-06-14T05:55:51;99521.19;;;16.09;80.54
64675;BME280;51090;51.512;11.332;2023-06-14T05:58:19;99519.94;;;16.11;80.71
64675;BME280;51090;51.512;11.332;2023-06-14T06:00:46;99516.78;;;16.21;81.52
64675;BME280;51090;51.512;11.332;2023-06-14T06:03:12;99522.22;;;16.33;80.24
64675;BME280;51090;51.512;11.332;2023-06-14T06:05:39;99530.81;;;16.42;79.32
64675;BME280;51090;51.512;11.332;2023-06-14T06:08:05;99528.66;;;16.50;79.31
64675;BME280;51090;51.512;11.332;2023-06-14T06:10:31;99526.47;;;16.59;78.80
64675;BME280;51090;51.512;11.332;2023-06-14T06:12:57;99532.75;;;16.71;78.30
64675;BME280;51090;51.512;11.332;2023-06-14T06:15:23;99528.53;;;16.82;77.49
64675;BME280;51090;51.512;11.332;2023-06-14T06:17:49;99531.50;;;16.92;77.14
64675;BME280;51090;51.512;11.332;2023-06-14T06:20:16;99533.00;;;17.07;76.70
64675;BME280;51090;51.512;11.332;2023-06-14T06:22:43;99521.63;;;17.11;75.86
64675;BME280;51090;51.512;11.332;2023-06-14T06:25:09;99533.19;;;17.24;75.13
64675;BME280;51090;51.512;11.332;2023-06-14T06:27:35;99533.66;;;17.20;74.38
64675;BME280;51090;51.512;11.332;2023-06-14T06:30:06;99528.13;;;17.15;73.84
64675;BME280;51090;51.512;11.332;2023-06-14T06:32:32;99536.31;;;17.20;73.31
64675;BME280;51090;51.512;11.332;2023-06-14T06:34:58;99542.75;;;17.19;73.17
64675;BME280;51090;51.512;11.332;2023-06-14T06:37:25;99560.72;;;17.31;73.14
64675;BME280;51090;51.512;11.332;2023-06-14T06:39:51;99563.34;;;17.37;72.73
64675;BME280;51090;51.512;11.332;2023-06-14T06:42:16;99556.47;;;17.41;72.59
64675;BME280;51090;51.512;11.332;2023-06-14T06:44:42;99558.00;;;17.49;72.41
64675;BME280;51090;51.512;11.332;2023-06-14T06:47:08;99558.19;;;17.66;72.36
64675;BME280;51090;51.512;11.332;2023-06-14T06:49:35;99568.00;;;17.72;71.48
64675;BME280;51090;51.512;11.332;2023-06-14T06:52:06;99572.69;;;17.77;71.54
64675;BME280;51090;51.512;11.332;2023-06-14T06:54:33;99554.50;;;17.79;72.03
64675;BME280;51090;51.512;11.332;2023-06-14T06:56:59;99565.19;;;17.86;70.82
64675;BME280;51090;51.512;11.332;2023-06-14T06:59:25;99573.22;;;17.86;71.03
64675;BME280;51090;51.512;11.332;2023-06-14T07:01:51;99568.69;;;17.86;71.47
64675;BME280;51090;51.512;11.332;2023-06-14T07:04:16;99567.41;;;17.89;71.24
64675;BME280;51090;51.512;11.332;2023-06-14T07:06:43;99573.03;;;17.99;71.22
64675;BME280;51090;51.512;11.332;2023-06-14T07:09:08;99574.56;;;18.06;70.45
64675;BME280;51090;51.512;11.332;2023-06-14T07:11:39;99581.81;;;18.18;70.60
64675;BME280;51090;51.512;11.332;2023-06-14T07:14:05;99586.34;;;18.17;69.98
64675;BME280;51090;51.512;11.332;2023-06-14T07:16:31;99579.16;;;18.30;69.81
64675;BME280;51090;51.512;11.332;2023-06-14T07:18:57;99587.31;;;18.46;69.55
64675;BME280;51090;51.512;11.332;2023-06-14T07:21:22;99572.84;;;18.36;68.66
64675;BME280;51090;51.512;11.332;2023-06-14T07:23:50;99571.91;;;18.42;69.25
64675;BME280;51090;51.512;11.332;2023-06-14T07:26:16;99581.94;;;18.46;68.31
64675;BME280;51090;51.512;11.332;2023-06-14T07:28:41;99575.88;;;18.51;68.07
64675;BME280;51090;51.512;11.332;2023-06-14T07:31:10;99580.31;;;18.57;67.68
64675;BME280;51090;51.512;11.332;2023-06-14T07:33:36;99586.16;;;18.66;67.45
64675;BME280;51090;51.512;11.332;2023-06-14T07:36:02;99575.75;;;18.69;66.90
64675;BME280;51090;51.512;11.332;2023-06-14T07:38:28;99576.81;;;18.80;66.32
64675;BME280;51090;51.512;11.332;2023-06-14T07:40:54;99577.06;;;18.79;66.61
64675;BME280;51090;51.512;11.332;2023-06-14T07:43:19;99594.13;;;18.84;65.95
64675;BME280;51090;51.512;11.332;2023-06-14T07:45:45;99581.59;;;18.90;65.95
64675;BME280;51090;51.512;11.332;2023-06-14T07:48:11;99583.22;;;19.03;66.22
64675;BME280;51090;51.512;11.332;2023-06-14T07:50:37;99570.69;;;19.08;65.02
64675;BME280;51090;51.512;11.332;2023-06-14T07:53:02;99580.25;;;19.28;64.13
64675;BME280;51090;51.512;11.332;2023-06-14T07:55:28;99582.06;;;19.39;63.11
64675;BME280;51090;51.512;11.332;2023-06-14T07:57:54;99584.63;;;19.46;62.23
64675;BME280;51090;51.512;11.332;2023-06-14T08:00:20;99578.88;;;19.54;61.93
64675;BME280;51090;51.512;11.332;2023-06-14T08:02:46;99583.63;;;19.64;60.69
64675;BME280;51090;51.512;11.332;2023-06-14T08:05:12;99581.47;;;19.77;60.07
64675;BME280;51090;51.512;11.332;2023-06-14T08:07:39;99585.16;;;19.88;60.04
64675;BME280;51090;51.512;11.332;2023-06-14T08:10:06;99585.34;;;19.98;59.38
64675;BME280;51090;51.512;11.332;2023-06-14T08:12:32;99579.97;;;19.98;58.08
64675;BME280;51090;51.512;11.332;2023-06-14T08:14:58;99577.53;;;19.97;56.97
64675;BME280;51090;51.512;11.332;2023-06-14T08:17:24;99583.66;;;20.09;57.43
64675;BME280;51090;51.512;11.332;2023-06-14T08:19:50;99576.81;;;20.18;57.27
64675;BME280;51090;51.512;11.332;2023-06-14T08:22:16;99575.44;;;20.33;56.21
64675;BME280;51090;51.512;11.332;2023-06-14T08:24:43;99578.28;;;20.43;55.45
64675;BME280;51090;51.512;11.332;2023-06-14T08:27:10;99573.78;;;20.32;54.47
64675;BME280;51090;51.512;11.332;2023-06-14T08:29:35;99576.25;;;20.33;54.94
64675;BME280;51090;51.512;11.332;2023-06-14T08:32:01;99577.38;;;20.37;55.18
64675;BME280;51090;51.512;11.332;2023-06-14T08:34:27;99583.81;;;20.53;54.41
64675;BME280;51090;51.512;11.332;2023-06-14T08:36:53;99586.28;;;20.55;53.98
64675;BME280;51090;51.512;11.332;2023-06-14T08:39:18;99572.09;;;20.42;53.50
64675;BME280;51090;51.512;11.332;2023-06-14T08:41:46;99586.75;;;20.52;53.58
64675;BME280;51090;51.512;11.332;2023-06-14T08:44:16;99577.31;;;20.66;53.39
64675;BME280;51090;51.512;11.332;2023-06-14T08:46:43;99574.31;;;20.84;52.34
64675;BME280;51090;51.512;11.332;2023-06-14T08:49:12;99582.47;;;21.12;51.54
64675;BME280;51090;51.512;11.332;2023-06-14T08:51:38;99583.91;;;21.19;49.70
64675;BME280;51090;51.512;11.332;2023-06-14T08:54:06;99589.59;;;21.40;49.73
64675;BME280;51090;51.512;11.332;2023-06-14T08:56:33;99588.53;;;21.41;49.31
64675;BME280;51090;51.512;11.332;2023-06-14T08:59:00;99584.75;;;21.42;48.93
64675;BME280;51090;51.512;11.332;2023-06-14T09:01:33;99589.00;;;21.60;48.08
64675;BME280;51090;51.512;11.332;2023-06-14T09:04:00;99595.31;;;21.70;48.34
64675;BME280;51090;51.512;11.332;2023-06-14T09:06:27;99600.13;;;21.90;47.61
64675;BME280;51090;51.512;11.332;2023-06-14T09:08:55;99599.28;;;22.17;47.60
64675;BME280;51090;51.512;11.332;2023-06-14T09:11:23;99608.50;;;22.48;46.17
64675;BME280;51090;51.512;11.332;2023-06-14T09:13:51;99605.19;;;22.83;46.14
64675;BME280;51090;51.512;11.332;2023-06-14T09:16:17;99593.84;;;22.81;44.87
64675;BME280;51090;51.512;11.332;2023-06-14T09:18:45;99600.53;;;22.69;44.18
64675;BME280;51090;51.512;11.332;2023-06-14T09:21:14;99596.59;;;22.49;43.94
64675;BME280;51090;51.512;11.332;2023-06-14T09:23:43;99603.47;;;22.30;44.09
64675;BME280;51090;51.512;11.332;2023-06-14T09:26:16;99572.50;;;22.10;44.08
64675;BME280;51090;51.512;11.332;2023-06-14T09:28:47;99601.59;;;22.03;43.77
64675;BME280;51090;51.512;11.332;2023-06-14T09:31:15;99606.09;;;22.20;45.89
64675;BME280;51090;51.512;11.332;2023-06-14T09:33:46;99610.59;;;22.41;43.47
64675;BME280;51090;51.512;11.332;2023-06-14T09:36:18;99589.34;;;22.55;44.35
64675;BME280;51090;51.512;11.332;2023-06-14T09:41:40;99587.66;;;22.91;41.44
64675;BME280;51090;51.512;11.332;2023-06-14T09:44:07;99586.06;;;22.95;42.93
64675;BME280;51090;51.512;11.332;2023-06-14T09:46:35;99591.19;;;22.92;42.30
64675;BME280;51090;51.512;11.332;2023-06-14T09:49:02;99599.44;;;23.12;42.81
64675;BME280;51090;51.512;11.332;2023-06-14T09:51:29;99582.41;;;23.22;42.50
64675;BME280;51090;51.512;11.332;2023-06-14T09:54:03;99597.84;;;23.21;41.37
64675;BME280;51090;51.512;11.332;2023-06-14T09:56:36;99593.78;;;23.19;40.78
64675;BME280;51090;51.512;11.332;2023-06-14T09:59:05;99597.56;;;23.18;40.97
64675;BME280;51090;51.512;11.332;2023-06-14T10:01:34;99601.09;;;23.18;40.68
64675;BME280;51090;51.512;11.332;2023-06-14T10:04:05;99602.91;;;23.02;40.76
64675;BME280;51090;51.512;11.332;2023-06-14T10:06:32;99582.78;;;22.88;41.62
64675;BME280;51090;51.512;11.332;2023-06-14T10:09:04;99586.06;;;22.95;40.52
64675;BME280;51090;51.512;11.332;2023-06-14T10:11:32;99596.31;;;22.93;41.06
64675;BME280;51090;51.512;11.332;2023-06-14T10:14:01;99586.25;;;22.83;40.84
64675;BME280;51090;51.512;11.332;2023-06-14T10:16:33;99588.56;;;22.97;41.01
64675;BME280;51090;51.512;11.332;2023-06-14T10:19:20;99604.50;;;22.98;40.58
64675;BME280;51090;51.512;11.332;2023-06-14T10:22:01;99589.75;;;22.74;39.92
64675;BME280;51090;51.512;11.332;2023-06-14T10:24:37;99587.88;;;22.79;40.32
64675;BME280;51090;51.512;11.332;2023-06-14T10:27:06;99593.97;;;23.02;41.20
64675;BME280;51090;51.512;11.332;2023-06-14T10:32:27;99572.75;;;23.36;40.52
64675;BME280;51090;51.512;11.332;2023-06-14T10:35:04;99581.72;;;23.52;39.49
64675;BME280;51090;51.512;11.332;2023-06-14T10:37:31;99570.88;;;23.52;39.50
64675;BME280;51090;51.512;11.332;2023-06-14T10:39:57;99584.72;;;23.51;39.33
64675;BME280;51090;51.512;11.332;2023-06-14T10:42:31;99578.13;;;23.26;39.10
64675;BME280;51090;51.512;11.332;2023-06-14T10:44:58;99561.06;;;23.25;39.65
64675;BME280;51090;51.512;11.332;2023-06-14T10:47:33;99574.38;;;23.42;39.68
64675;BME280;51090;51.512;11.332;2023-06-14T10:50:09;99570.09;;;23.57;39.05
64675;BME280;51090;51.512;11.332;2023-06-14T10:52:43;99566.94;;;23.90;37.89
64675;BME280;51090;51.512;11.332;2023-06-14T10:55:17;99570.75;;;24.15;38.42
64675;BME280;51090;51.512;11.332;2023-06-14T10:57:45;99574.50;;;24.09;38.35
64675;BME280;51090;51.512;11.332;2023-06-14T11:00:13;99560.97;;;23.94;38.75
64675;BME280;51090;51.512;11.332;2023-06-14T11:05:53;99558.78;;;23.85;38.95
64675;BME280;51090;51.512;11.332;2023-06-14T11:08:40;99564.47;;;23.89;37.53
64675;BME280;51090;51.512;11.332;2023-06-14T11:11:13;99566.09;;;23.75;38.88
64675;BME280;51090;51.512;11.332;2023-06-14T11:13:44;99556.63;;;23.87;39.42
64675;BME280;51090;51.512;11.332;2023-06-14T11:16:16;99559.88;;;23.84;38.72
64675;BME280;51090;51.512;11.332;2023-06-14T11:18:42;99575.31;;;24.09;39.15
64675;BME280;51090;51.512;11.332;2023-06-14T11:21:09;99558.78;;;24.42;38.80
64675;BME280;51090;51.512;11.332;2023-06-14T11:23:36;99554.41;;;24.82;37.97
64675;BME280;51090;51.512;11.332;2023-06-14T11:26:02;99557.53;;;25.09;37.27
64675;BME280;51090;51.512;11.332;2023-06-14T11:28:39;99548.56;;;25.24;36.13
64675;BME280;51090;51.512;11.332;2023-06-14T11:31:06;99549.09;;;25.26;36.78
64675;BME280;51090;51.512;11.332;2023-06-14T11:33:32;99555.38;;;25.16;37.17
64675;BME280;51090;51.512;11.332;2023-06-14T11:35:58;99560.78;;;25.22;37.33
64675;BME280;51090;51.512;11.332;2023-06-14T11:38:25;99556.09;;;25.32;37.33
64675;BME280;51090;51.512;11.332;2023-06-14T11:40:51;99551.06;;;25.60;37.50
64675;BME280;51090;51.512;11.332;2023-06-14T11:43:16;99545.28;;;25.77;36.91
64675;BME280;51090;51.512;11.332;2023-06-14T11:45:42;99548.13;;;25.56;37.03
64675;BME280;51090;51.512;11.332;2023-06-14T11:48:08;99555.38;;;25.66;36.87
64675;BME280;51090;51.512;11.332;2023-06-14T11:50:38;99557.59;;;25.59;36.49
64675;BME280;51090;51.512;11.332;2023-06-14T11:53:04;99548.94;;;25.57;36.91
64675;BME280;51090;51.512;11.332;2023-06-14T11:55:39;99562.03;;;25.45;36.95
64675;BME280;51090;51.512;11.332;2023-06-14T11:58:06;99561.47;;;25.42;37.09
64675;BME280;51090;51.512;11.332;2023-06-14T12:00:32;99548.84;;;25.67;37.42
64675;BME280;51090;51.512;11.332;2023-06-14T12:02:58;99554.19;;;25.88;36.58
64675;BME280;51090;51.512;11.332;2023-06-14T12:05:25;99554.53;;;25.71;36.67
64675;BME280;51090;51.512;11.332;2023-06-14T12:08:04;99549.16;;;25.60;36.41
64675;BME280;51090;51.512;11.332;2023-06-14T12:10:42;99540.72;;;25.67;36.29
64675;BME280;51090;51.512;11.332;2023-06-14T12:13:09;99551.16;;;25.89;37.27
64675;BME280;51090;51.512;11.332;2023-06-14T12:15:35;99543.81;;;25.95;36.99
64675;BME280;51090;51.512;11.332;2023-06-14T12:18:01;99544.97;;;26.18;36.37
64675;BME280;51090;51.512;11.332;2023-06-14T12:20:32;99547.69;;;26.47;36.09
64675;BME280;51090;51.512;11.332;2023-06-14T12:23:03;99551.94;;;26.58;35.45
64675;BME280;51090;51.512;11.332;2023-06-14T12:25:34;99541.63;;;26.79;34.64
64675;BME280;51090;51.512;11.332;2023-06-14T12:28:09;99554.25;;;26.94;34.24
64675;BME280;51090;51.512;11.332;2023-06-14T12:30:36;99546.34;;;26.98;34.96
64675;BME280;51090;51.512;11.332;2023-06-14T12:33:03;99547.22;;;27.12;34.89
64675;BME280;51090;51.512;11.332;2023-06-14T12:35:29;99547.88;;;27.28;34.98
64675;BME280;51090;51.512;11.332;2023-06-14T12:37:54;99542.59;;;27.36;35.00
64675;BME280;51090;51.512;11.332;2023-06-14T12:40:20;99554.00;;;27.14;34.61
64675;BME280;51090;51.512;11.332;2023-06-14T12:42:46;99558.78;;;27.04;34.88
64675;BME280;51090;51.512;11.332;2023-06-14T12:45:15;99549.44;;;27.10;34.94
64675;BME280;51090;51.512;11.332;2023-06-14T12:47:41;99566.66;;;27.29;35.11
64675;BME280;51090;51.512;11.332;2023-06-14T12:50:07;99548.63;;;27.33;34.30
64675;BME280;51090;51.512;11.332;2023-06-14T12:52:33;99558.84;;;27.79;34.18
64675;BME280;51090;51.512;11.332;2023-06-14T12:55:05;99540.75;;;27.89;33.52
64675;BME280;51090;51.512;11.332;2023-06-14T12:57:31;99548.41;;;28.19;33.54
64675;BME280;51090;51.512;11.332;2023-06-14T12:59:57;99542.09;;;28.38;32.76
64675;BME280;51090;51.512;11.332;2023-06-14T13:02:23;99539.72;;;28.50;32.61
64675;BME280;51090;51.512;11.332;2023-06-14T13:04:50;99537.00;;;28.64;32.19